Time;durP1;ratioP1;P1;durP2;ratioP2;P2;SDS_P1;SDS_P2;PMS_P1;PMS_P2;Temp;Humidity;BMP_temperature;BMP_pressure;BME280_temperature;BME280_humidity;BME280_pressure;Samples;Min_cycle;Max_cycle;Signal;HPM_P1;HPM_P2
2024/01/09 00:01:20;;;;;;;0.30;0.30;;;;;;;3.56;89.81;96930.00;4986266;28;20430;-69
2024/01/09 00:03:47;;;;;;;0.30;0.30;;;;;;;4.09;90.93;96858.97;4986078;28;20054;-69
2024/01/09 00:06:19;;;;;;;0.30;0.30;;;;;;;4.05;90.39;96873.66;4987797;28;20060;-70
2024/01/09 00:08:46;;;;;;;0.30;0.30;;;;;;;3.19;91.17;96736.47;4987412;28;20058;-70
2024/01/09 00:11:14;;;;;;;0.30;0.30;;;;;;;3.31;91.67;96744.75;4987834;28;20052;-68
2024/01/09 00:13:42;;;;;;;0.20;0.20;;;;;;;2.77;91.35;96674.56;4987742;28;20054;-71
2024/01/09 00:16:09;;;;;;;0.30;0.30;;;;;;;4.31;92.44;96935.41;4985938;28;20572;-70
2024/01/09 00:18:36;;;;;;;0.30;0.30;;;;;;;4.24;92.23;96932.38;4987545;28;20061;-69
2024/01/09 00:21:03;;;;;;;0.30;0.30;;;;;;;4.19;92.54;96938.06;4987347;28;20056;-69
2024/01/09 00:23:30;;;;;;;0.20;0.20;;;;;;;3.94;90.83;96889.69;4987422;28;20061;-69
2024/01/09 00:25:57;;;;;;;0.30;0.30;;;;;;;3.73;90.49;96861.44;4986986;28;20056;-70
2024/01/09 00:28:24;;;;;;;0.30;0.30;;;;;;;3.34;90.69;96820.72;4987230;28;20058;-68
2024/01/09 00:30:50;;;;;;;0.30;0.30;;;;;;;4.32;90.09;96939.75;4987560;28;20137;-69
2024/01/09 00:33:17;;;;;;;0.30;0.30;;;;;;;4.29;90.08;96917.66;4985965;28;20133;-69
2024/01/09 00:35:44;;;;;;;0.20;0.20;;;;;;;4.32;89.21;96937.00;4986665;28;20046;-68
2024/01/09 00:38:12;;;;;;;0.30;0.30;;;;;;;4.34;87.81;96940.22;4987469;28;20054;-68
2024/01/09 00:40:39;;;;;;;0.22;0.22;;;;;;;2.34;86.46;96605.66;4987560;28;20052;-69
2024/01/09 00:43:07;;;;;;;0.30;0.30;;;;;;;3.87;84.95;96883.91;4986006;28;20133;-69
2024/01/09 00:45:34;;;;;;;0.30;0.30;;;;;;;3.54;85.55;96836.41;4986767;28;20058;-68
2024/01/09 00:48:05;;;;;;;0.20;0.20;;;;;;;4.26;84.82;96934.78;4986370;28;20320;-67
2024/01/09 00:50:33;;;;;;;0.30;0.30;;;;;;;3.21;85.52;96761.56;4986614;28;20090;-67
2024/01/09 00:53:00;;;;;;;0.30;0.30;;;;;;;4.07;85.58;96913.31;4986727;28;20540;-67
2024/01/09 00:55:26;;;;;;;0.30;0.30;;;;;;;4.16;87.03;96946.94;4986705;28;20089;-67
2024/01/09 00:57:53;;;;;;;0.30;0.30;;;;;;;3.78;85.46;96883.16;4986462;28;20144;-67
2024/01/09 01:00:20;;;;;;;0.20;0.20;;;;;;;4.20;85.95;96936.94;4986518;28;20054;-68
2024/01/09 01:02:48;;;;;;;0.30;0.30;;;;;;;3.92;85.96;96886.47;4990978;28;20042;-66
2024/01/09 01:05:16;;;;;;;0.30;0.30;;;;;;;3.05;85.77;96798.84;5006088;28;20112;-69
2024/01/09 01:07:43;;;;;;;0.28;0.28;;;;;;;4.12;83.65;96940.53;5004976;28;20508;-67
2024/01/09 01:10:12;;;;;;;0.30;0.30;;;;;;;4.06;83.02;96949.25;5006583;28;20064;-68
2024/01/09 01:12:41;;;;;;;0.30;0.30;;;;;;;3.62;84.21;96860.19;5005967;28;20054;-68
2024/01/09 01:15:08;;;;;;;0.30;0.30;;;;;;;4.12;84.33;96937.78;5004852;28;20121;-68
2024/01/09 01:17:35;;;;;;;0.30;0.30;;;;;;;3.94;84.07;96908.88;5004586;28;20058;-67
2024/01/09 01:20:02;;;;;;;0.30;0.30;;;;;;;4.13;83.64;96935.81;5004763;28;20057;-67
2024/01/09 01:22:29;;;;;;;0.30;0.30;;;;;;;4.18;81.76;96936.44;5005623;28;20561;-67
2024/01/09 01:24:56;;;;;;;0.20;0.20;;;;;;;3.97;82.26;96908.19;5004673;28;20062;-66
2024/01/09 01:27:22;;;;;;;0.30;0.30;;;;;;;4.11;83.44;96954.56;5005453;28;20054;-67
2024/01/09 01:29:49;;;;;;;0.28;0.28;;;;;;;4.08;83.27;96958.75;5006241;28;20060;-67
2024/01/09 01:32:16;;;;;;;0.30;0.30;;;;;;;4.15;82.70;96945.34;4988265;28;20144;-66
2024/01/09 01:34:43;;;;;;;0.30;0.30;;;;;;;4.13;82.18;96936.63;4986744;28;20160;-67
2024/01/09 01:37:09;;;;;;;0.30;0.30;;;;;;;4.24;82.05;96946.09;4985940;28;20046;-67
2024/01/09 01:39:36;;;;;;;0.30;0.30;;;;;;;4.08;81.76;96927.78;4986372;28;20445;-67
2024/01/09 01:42:03;;;;;;;0.30;0.30;;;;;;;3.65;82.49;96880.66;5000771;28;20050;-66
2024/01/09 01:44:31;;;;;;;0.30;0.30;;;;;;;4.13;82.46;96928.41;4986284;28;20061;-66
2024/01/09 01:46:58;;;;;;;0.30;0.30;;;;;;;4.27;81.77;96944.59;4985240;28;20061;-66
2024/01/09 01:49:25;;;;;;;0.30;0.30;;;;;;;4.32;79.97;96950.72;4986045;28;20136;-66
2024/01/09 01:51:53;;;;;;;0.30;0.30;;;;;;;4.15;78.49;96956.31;4985496;28;20572;-66
2024/01/09 01:54:21;;;;;;;0.30;0.30;;;;;;;2.14;79.71;96611.81;4985903;28;20060;-66
2024/01/09 01:56:50;;;;;;;0.30;0.30;;;;;;;4.40;81.28;96954.53;4985515;28;20042;-67
2024/01/09 01:59:20;;;;;;;0.30;0.30;;;;;;;4.45;81.57;96946.91;4983822;28;20046;-66
2024/01/09 02:01:47;;;;;;;0.22;0.22;;;;;;;4.30;81.64;96955.72;4985012;28;20058;-66
2024/01/09 02:04:16;;;;;;;0.30;0.30;;;;;;;4.38;79.97;96957.59;4985850;28;20089;-66
2024/01/09 02:06:43;;;;;;;0.30;0.30;;;;;;;4.21;78.63;96960.47;4984203;28;20585;-67
2024/01/09 02:09:10;;;;;;;0.30;0.30;;;;;;;4.08;78.79;96964.22;4984607;28;20058;-65
2024/01/09 02:11:37;;;;;;;0.28;0.28;;;;;;;3.90;78.29;96948.22;4985357;28;20140;-65
2024/01/09 02:14:04;;;;;;;0.30;0.30;;;;;;;3.85;78.51;96968.38;4985640;28;20104;-66
2024/01/09 02:16:31;;;;;;;0.30;0.30;;;;;;;3.53;77.98;96933.38;4985342;28;20082;-65
2024/01/09 02:18:58;;;;;;;0.22;0.22;;;;;;;3.61;78.83;96951.72;4984047;28;20046;-66
2024/01/09 02:21:24;;;;;;;0.30;0.30;;;;;;;3.82;78.48;96990.97;4983771;28;20693;-66
2024/01/09 02:23:51;;;;;;;0.22;0.22;;;;;;;3.64;79.17;96972.97;4985261;28;20066;-67
2024/01/09 02:26:20;;;;;;;0.25;0.25;;;;;;;3.71;78.50;96995.19;4985026;28;20133;-66
2024/01/09 02:29:11;;;;;;;0.30;0.30;;;;;;;3.53;78.52;96982.66;4985750;28;20497;-66
2024/01/09 02:31:38;;;;;;;0.30;0.30;;;;;;;3.53;79.55;96963.50;4983846;28;20065;-66
2024/01/09 02:34:06;;;;;;;0.30;0.30;;;;;;;3.80;78.95;96998.69;4985318;28;20054;-66
2024/01/09 02:36:35;;;;;;;0.30;0.30;;;;;;;3.59;78.63;96997.78;4985186;28;20433;-67
2024/01/09 02:39:02;;;;;;;0.22;0.22;;;;;;;3.41;78.86;96993.50;4985036;28;20054;-68
2024/01/09 02:41:28;;;;;;;0.25;0.25;;;;;;;3.48;77.75;96991.06;4984556;28;20771;-67
2024/01/09 02:43:55;;;;;;;0.20;0.20;;;;;;;3.44;77.73;96984.63;4983757;28;20050;-66
2024/01/09 02:46:22;;;;;;;0.20;0.20;;;;;;;3.31;77.35;96982.88;4984561;28;20564;-67
2024/01/09 02:48:49;;;;;;;0.30;0.30;;;;;;;3.24;77.09;96990.00;4985197;28;20058;-67
2024/01/09 02:51:15;;;;;;;0.20;0.20;;;;;;;3.13;75.45;96994.97;4984870;28;20069;-66
2024/01/09 02:53:42;;;;;;;0.30;0.30;;;;;;;3.12;78.14;96998.84;4983645;28;20042;-66
2024/01/09 02:56:09;;;;;;;0.20;0.20;;;;;;;2.91;76.92;96982.28;4985118;28;20117;-66
2024/01/09 02:58:36;;;;;;;0.20;0.20;;;;;;;3.18;78.48;97013.97;4984843;28;20516;-66
2024/01/09 03:01:03;;;;;;;0.20;0.20;;;;;;;2.84;80.35;96997.59;4984433;28;20054;-67
2024/01/09 03:03:30;;;;;;;0.20;0.20;;;;;;;2.64;82.02;97001.75;4984923;28;20058;-66
2024/01/09 03:05:56;;;;;;;0.20;0.20;;;;;;;2.37;77.83;97004.75;4983451;28;20058;-66
2024/01/09 03:08:23;;;;;;;0.30;0.30;;;;;;;2.24;77.27;96988.50;4988947;28;20108;-67
2024/01/09 03:10:50;;;;;;;0.20;0.20;;;;;;;2.35;77.21;97006.22;4989058;28;20050;-66
2024/01/09 03:13:17;;;;;;;0.20;0.20;;;;;;;2.43;77.84;96995.31;4988763;28;20054;-67
2024/01/09 03:15:44;;;;;;;0.20;0.20;;;;;;;1.58;77.90;96882.31;4988637;28;20921;-67
2024/01/09 03:18:11;;;;;;;0.20;0.20;;;;;;;2.02;77.76;96974.97;4987272;28;20050;-66
2024/01/09 03:20:38;;;;;;;0.20;0.20;;;;;;;1.74;77.99;96981.78;4988561;28;20415;-66
2024/01/09 03:23:05;;;;;;;0.20;0.20;;;;;;;1.77;77.25;97003.78;4988308;28;20050;-66
2024/01/09 03:25:31;;;;;;;0.20;0.20;;;;;;;2.05;78.14;97007.09;4988150;28;20096;-66
2024/01/09 03:27:58;;;;;;;0.20;0.20;;;;;;;2.38;78.41;97009.13;4986840;28;20533;-67
2024/01/09 03:30:25;;;;;;;0.20;0.20;;;;;;;2.26;76.94;97016.34;4988526;28;20094;-67
2024/01/09 03:32:52;;;;;;;0.20;0.20;;;;;;;1.83;78.45;96938.91;4988432;28;20473;-66
2024/01/09 03:35:19;;;;;;;0.28;0.28;;;;;;;1.93;76.98;96971.41;4988646;28;20480;-66
2024/01/09 03:37:46;;;;;;;0.20;0.20;;;;;;;2.02;78.05;97014.00;4988250;28;20054;-67
2024/01/09 03:40:13;;;;;;;0.20;0.20;;;;;;;2.19;75.66;97007.78;4988099;28;20054;-67
2024/01/09 03:42:39;;;;;;;0.20;0.20;;;;;;;2.48;76.72;97016.22;4988096;28;20145;-66
2024/01/09 03:45:07;;;;;;;0.20;0.20;;;;;;;2.38;77.49;96972.78;4988363;28;20057;-67
2024/01/09 03:47:34;;;;;;;0.20;0.20;;;;;;;2.72;77.64;97027.47;4986709;28;20112;-67
2024/01/09 03:50:00;;;;;;;0.30;0.30;;;;;;;2.84;77.47;97033.13;4988501;28;20050;-66
2024/01/09 03:52:27;;;;;;;0.20;0.20;;;;;;;2.62;75.44;97008.69;4988136;28;20053;-66
2024/01/09 03:54:54;;;;;;;0.30;0.30;;;;;;;2.93;74.49;97028.47;4986686;28;20513;-67
2024/01/09 03:57:21;;;;;;;0.20;0.20;;;;;;;2.78;74.30;96998.88;4987832;28;20082;-67
2024/01/09 03:59:47;;;;;;;0.20;0.20;;;;;;;2.26;74.36;97005.41;4988337;28;20078;-68
2024/01/09 04:02:14;;;;;;;0.20;0.20;;;;;;;2.09;76.28;97013.53;4987428;28;20085;-69
2024/01/09 04:04:41;;;;;;;0.20;0.20;;;;;;;2.26;74.43;97063.56;4988079;28;20372;-67
2024/01/09 04:07:08;;;;;;;0.20;0.20;;;;;;;1.36;77.13;96963.13;4986329;28;20058;-67
2024/01/09 04:09:35;;;;;;;0.20;0.20;;;;;;;2.35;79.57;97075.34;4988101;28;20054;-67
2024/01/09 04:12:02;;;;;;;0.20;0.20;;;;;;;2.37;80.12;97064.09;4987885;28;20096;-67
2024/01/09 04:14:28;;;;;;;0.20;0.20;;;;;;;2.59;77.63;97099.53;4986506;28;20128;-68
2024/01/09 04:16:56;;;;;;;0.20;0.20;;;;;;;2.57;77.72;97107.25;4987675;28;20129;-67
2024/01/09 04:19:23;;;;;;;0.20;0.20;;;;;;;2.46;73.84;97138.72;4986165;28;20418;-67
2024/01/09 04:21:49;;;;;;;0.20;0.20;;;;;;;2.05;72.22;97105.44;4987617;28;20057;-67
2024/01/09 04:24:16;;;;;;;0.30;0.30;;;;;;;1.65;72.70;97128.31;4987496;28;20077;-67
2024/01/09 04:26:43;;;;;;;0.20;0.20;;;;;;;1.75;75.26;97117.16;4987646;28;20057;-67
2024/01/09 04:29:10;;;;;;;0.20;0.20;;;;;;;1.78;76.24;97128.25;4986090;28;20054;-67
2024/01/09 04:31:37;;;;;;;0.20;0.20;;;;;;;1.65;78.69;97131.06;4985933;28;20062;-67
2024/01/09 04:34:04;;;;;;;0.20;0.20;;;;;;;1.90;79.67;97136.69;4987311;28;20056;-68
2024/01/09 04:36:31;;;;;;;0.20;0.20;;;;;;;1.72;76.50;97128.69;4987256;28;20058;-68
2024/01/09 04:39:01;;;;;;;0.20;0.20;;;;;;;-0.29;76.20;96825.56;4987057;28;20065;-67
2024/01/09 04:41:27;;;;;;;0.20;0.20;;;;;;;1.61;77.55;97132.81;4986832;28;20050;-68
2024/01/09 04:43:54;;;;;;;0.20;0.20;;;;;;;1.69;80.25;97129.31;4987259;28;20688;-67
2024/01/09 04:46:21;;;;;;;0.20;0.20;;;;;;;1.51;81.45;97129.22;4986744;28;20053;-67
2024/01/09 04:48:48;;;;;;;0.20;0.20;;;;;;;1.25;80.09;97122.75;4985584;28;20112;-68
2024/01/09 04:51:15;;;;;;;0.20;0.20;;;;;;;-0.73;76.09;96894.22;4986947;28;20057;-67
2024/01/09 04:53:41;;;;;;;0.20;0.20;;;;;;;1.09;75.31;97195.13;4986933;28;20072;-67
2024/01/09 04:56:08;;;;;;;0.20;0.20;;;;;;;0.89;75.47;97190.09;4987002;28;20054;-66
2024/01/09 04:58:35;;;;;;;0.20;0.20;;;;;;;0.91;76.68;97187.88;4986999;28;20057;-67
2024/01/09 05:01:02;;;;;;;0.20;0.20;;;;;;;0.39;76.70;97114.84;4986601;28;20070;-66
2024/01/09 05:03:29;;;;;;;0.20;0.20;;;;;;;1.03;76.69;97209.97;4986566;28;20061;-68
2024/01/09 05:05:56;;;;;;;0.20;0.20;;;;;;;0.88;76.04;97223.94;4986562;28;20057;-68
2024/01/09 05:08:23;;;;;;;0.20;0.20;;;;;;;0.32;73.57;97166.19;4986726;28;20497;-67
2024/01/09 05:10:50;;;;;;;0.20;0.20;;;;;;;-0.91;74.52;97038.38;4986363;28;20086;-66
2024/01/09 05:13:16;;;;;;;0.20;0.20;;;;;;;0.55;75.44;97224.34;4986371;28;20517;-66
2024/01/09 05:15:43;;;;;;;0.20;0.20;;;;;;;0.44;76.13;97217.47;4986313;28;20050;-66
2024/01/09 05:18:11;;;;;;;0.20;0.20;;;;;;;0.76;76.06;97199.09;4986240;28;20137;-66
2024/01/09 05:20:38;;;;;;;0.20;0.20;;;;;;;0.46;74.66;97199.69;4986529;28;20129;-67
2024/01/09 05:23:05;;;;;;;0.20;0.20;;;;;;;0.32;75.30;97209.78;4986963;28;20468;-67
2024/01/09 05:25:31;;;;;;;0.20;0.20;;;;;;;0.48;75.92;97208.38;4986237;28;20070;-67
2024/01/09 05:27:58;;;;;;;0.20;0.20;;;;;;;0.51;76.24;97202.34;4985000;28;20050;-66
2024/01/09 05:30:25;;;;;;;0.20;0.20;;;;;;;0.05;75.85;97187.16;4985849;28;20334;-67
2024/01/09 05:32:52;;;;;;;0.20;0.20;;;;;;;0.51;75.75;97204.25;4984451;28;20055;-66
2024/01/09 05:35:19;;;;;;;0.20;0.20;;;;;;;0.60;75.65;97211.41;4984603;28;20047;-66
2024/01/09 05:37:46;;;;;;;0.20;0.20;;;;;;;-0.12;74.43;97114.22;4985888;28;20950;-68
2024/01/09 05:40:13;;;;;;;0.20;0.20;;;;;;;0.25;75.00;97225.72;4985996;28;20054;-68
2024/01/09 05:42:40;;;;;;;0.20;0.20;;;;;;;0.10;76.03;97234.16;4986091;28;20129;-67
2024/01/09 05:45:07;;;;;;;0.20;0.20;;;;;;;-0.15;75.56;97205.47;4986502;28;20411;-67
2024/01/09 05:47:33;;;;;;;0.20;0.20;;;;;;;0.13;76.11;97249.88;4985521;28;20065;-64
2024/01/09 05:50:01;;;;;;;0.20;0.20;;;;;;;-0.44;74.86;97261.16;5003617;28;20054;-66
2024/01/09 05:52:27;;;;;;;0.15;0.15;;;;;;;-0.26;76.16;97279.38;5004642;28;20508;-67
2024/01/09 05:54:54;;;;;;;0.20;0.20;;;;;;;-0.23;77.34;97257.03;5004109;28;20053;-65
2024/01/09 05:57:21;;;;;;;0.20;0.20;;;;;;;-0.34;77.30;97266.44;5004771;28;20524;-67
2024/01/09 05:59:48;;;;;;;0.17;0.17;;;;;;;-0.34;77.54;97244.69;5003899;28;20493;-68
2024/01/09 06:02:15;;;;;;;0.20;0.20;;;;;;;-0.26;76.77;97247.56;5003318;28;20046;-66
2024/01/09 06:04:42;;;;;;;0.20;0.20;;;;;;;-0.35;74.21;97245.78;4988504;28;20165;-67
2024/01/09 06:07:09;;;;;;;0.20;0.20;;;;;;;-0.41;76.21;97260.59;4983758;28;20105;-67
2024/01/09 06:09:36;;;;;;;0.20;0.20;;;;;;;-0.70;74.41;97273.50;4961236;28;20042;-67
2024/01/09 06:12:03;;;;;;;0.20;0.20;;;;;;;-1.27;76.96;97170.44;4984566;28;20058;-66
2024/01/09 06:14:29;;;;;;;0.20;0.20;;;;;;;-0.64;75.58;97278.59;4983722;28;20058;-66
2024/01/09 06:16:56;;;;;;;0.10;0.10;;;;;;;-0.74;77.39;97269.75;4984100;28;20061;-67
2024/01/09 06:19:23;;;;;;;0.20;0.20;;;;;;;-0.79;75.30;97286.16;4985426;28;20120;-67
2024/01/09 06:21:50;;;;;;;0.20;0.20;;;;;;;-1.70;74.96;97173.16;4984838;28;20054;-66
2024/01/09 06:24:17;;;;;;;0.20;0.20;;;;;;;-1.35;75.48;97179.25;4984703;28;20058;-67
2024/01/09 06:26:44;;;;;;;0.20;0.20;;;;;;;-1.86;74.42;97130.97;4983374;28;20056;-68
2024/01/09 06:29:10;;;;;;;0.20;0.20;;;;;;;-0.89;75.09;97286.28;4985231;28;20157;-66
2024/01/09 06:31:37;;;;;;;0.20;0.20;;;;;;;-1.21;74.36;97234.47;4984829;28;20050;-67
2024/01/09 06:34:04;;;;;;;0.20;0.20;;;;;;;-0.71;73.60;97277.34;4987415;28;20053;-69
2024/01/09 06:36:31;;;;;;;0.13;0.13;;;;;;;-1.52;73.33;97130.03;4984715;28;20425;-69
2024/01/09 06:40:10;;;;;;;0.20;0.20;;;;;;;-1.15;75.50;97173.53;5017234;28;20634;-66
2024/01/09 06:42:39;;;;;;;0.20;0.20;;;;;;;-1.00;73.09;97214.09;5013094;28;20050;-62
2024/01/09 06:45:06;;;;;;;0.20;0.20;;;;;;;-0.87;73.28;97303.91;4992912;28;20046;-69
2024/01/09 06:47:34;;;;;;;0.20;0.20;;;;;;;-0.73;73.75;97323.03;5004748;28;20153;-64
2024/01/09 06:50:03;;;;;;;0.20;0.20;;;;;;;-0.67;74.13;97338.19;4994645;28;20141;-66
2024/01/09 06:52:33;;;;;;;0.20;0.20;;;;;;;-0.61;74.75;97309.81;4997230;28;20586;-70
2024/01/09 06:54:59;;;;;;;0.20;0.20;;;;;;;-0.71;74.02;97282.78;4999238;28;20050;-70
2024/01/09 06:57:26;;;;;;;0.20;0.20;;;;;;;-0.46;72.97;97309.63;4995846;28;20143;-60
2024/01/09 06:59:53;;;;;;;0.20;0.20;;;;;;;-0.74;73.21;97315.97;5043558;28;20510;-60
2024/01/09 07:02:20;;;;;;;0.20;0.20;;;;;;;-0.49;73.79;97351.03;5082809;28;20054;-63
2024/01/09 07:04:48;;;;;;;0.20;0.20;;;;;;;-0.68;73.89;97359.13;5019385;28;20061;-64
2024/01/09 07:07:15;;;;;;;0.20;0.20;;;;;;;-0.55;74.16;97342.09;5039310;28;20498;-61
2024/01/09 07:09:41;;;;;;;0.20;0.20;;;;;;;-0.35;73.18;97357.34;5005525;28;20054;-63
2024/01/09 07:12:09;;;;;;;0.20;0.20;;;;;;;-0.47;73.39;97365.13;5081119;28;20047;-67
2024/01/09 07:14:36;;;;;;;0.20;0.20;;;;;;;-1.41;73.23;97240.16;4995051;28;20054;-61
2024/01/09 07:17:03;;;;;;;0.20;0.20;;;;;;;-0.53;73.89;97347.25;5032605;28;20043;-61
2024/01/09 07:19:30;;;;;;;0.20;0.20;;;;;;;-0.23;72.78;97376.78;5016077;28;20077;-63
2024/01/09 07:21:57;;;;;;;0.10;0.10;;;;;;;-1.29;73.16;97309.28;5050915;28;20532;-65
2024/01/09 07:24:24;;;;;;;0.15;0.15;;;;;;;-0.56;72.38;97396.81;5013437;28;20050;-60
2024/01/09 07:26:51;;;;;;;0.20;0.20;;;;;;;-0.65;72.77;97385.75;5084679;28;20055;-61
2024/01/09 07:29:19;;;;;;;0.20;0.20;;;;;;;-0.84;72.43;97381.38;5026162;28;20089;-62
2024/01/09 07:31:47;;;;;;;0.20;0.20;;;;;;;-0.59;71.48;97397.38;4997117;28;20537;-63
2024/01/09 07:34:14;;;;;;;0.20;0.20;;;;;;;-0.81;72.53;97342.72;4996927;28;20137;-60
2024/01/09 07:36:42;;;;;;;0.20;0.20;;;;;;;-0.70;72.30;97380.38;5007629;28;20421;-64
2024/01/09 07:39:11;;;;;;;0.20;0.20;;;;;;;-1.18;71.12;97277.38;5020042;28;20139;-63
2024/01/09 07:41:38;;;;;;;0.20;0.20;;;;;;;-0.79;69.58;97359.56;5029120;28;20053;-65
2024/01/09 07:44:06;;;;;;;0.20;0.20;;;;;;;-0.74;71.77;97370.34;5035090;28;20048;-64
2024/01/09 07:46:34;;;;;;;0.20;0.20;;;;;;;-1.18;69.11;97290.97;5011232;28;20050;-63
2024/01/09 07:49:00;;;;;;;0.20;0.20;;;;;;;-0.53;70.01;97398.94;5021282;28;20059;-60
2024/01/09 07:51:27;;;;;;;0.20;0.20;;;;;;;-0.35;70.68;97400.91;5010384;28;20098;-62
2024/01/09 07:53:54;;;;;;;0.20;0.20;;;;;;;-1.03;70.19;97299.78;4977461;28;20050;-63
2024/01/09 07:56:22;;;;;;;0.20;0.20;;;;;;;-0.11;69.94;97386.13;5008465;28;20052;-57
2024/01/09 07:58:49;;;;;;;0.17;0.17;;;;;;;-0.36;68.80;97350.28;5032850;28;20524;-59
2024/01/09 08:01:16;;;;;;;0.20;0.20;;;;;;;-1.67;69.27;97172.56;4965598;28;20070;-67
2024/01/09 08:03:43;;;;;;;0.20;0.20;;;;;;;-0.61;66.77;97364.22;4959326;28;20050;-62
2024/01/09 08:06:17;;;;;;;0.20;0.20;;;;;;;-1.05;68.05;97303.84;4986804;28;20062;-61
2024/01/09 08:08:44;;;;;;;0.20;0.20;;;;;;;-0.91;67.47;97331.97;4990411;28;20131;-61
2024/01/09 08:11:16;;;;;;;0.20;0.20;;;;;;;-0.58;68.87;97409.88;4999270;28;20112;-60
2024/01/09 08:13:43;;;;;;;0.20;0.20;;;;;;;-1.59;68.32;97272.41;5023059;28;20396;-61
2024/01/09 08:16:10;;;;;;;0.20;0.20;;;;;;;-0.42;67.96;97424.91;4985951;28;20576;-63
2024/01/09 08:18:37;;;;;;;0.20;0.20;;;;;;;-0.90;67.51;97426.03;5003088;28;20126;-61
2024/01/09 08:21:05;;;;;;;0.20;0.20;;;;;;;-0.29;68.03;97448.72;5086088;28;20495;-60
2024/01/09 08:23:32;;;;;;;0.20;0.20;;;;;;;-0.79;67.42;97444.66;5062452;28;20673;-60
2024/01/09 08:25:59;;;;;;;0.20;0.20;;;;;;;-1.41;67.12;97365.94;5044397;28;20061;-63
2024/01/09 08:28:26;;;;;;;0.20;0.20;;;;;;;-3.19;68.63;97051.47;5038678;28;20050;-70
2024/01/09 08:30:53;;;;;;;0.20;0.20;;;;;;;-1.46;67.94;97395.03;4983641;28;20059;-62
2024/01/09 08:33:20;;;;;;;0.20;0.20;;;;;;;-1.05;67.53;97446.00;4984713;28;20050;-63
2024/01/09 08:35:52;;;;;;;0.20;0.20;;;;;;;-1.15;67.10;97439.84;4983272;28;20051;-64
2024/01/09 08:38:19;;;;;;;0.10;0.10;;;;;;;-1.18;67.74;97451.28;4982821;28;20050;-65
2024/01/09 08:40:51;;;;;;;0.20;0.20;;;;;;;-1.29;66.90;97466.06;4994453;28;20082;-68
2024/01/09 08:43:18;;;;;;;0.20;0.20;;;;;;;-1.42;68.09;97488.47;4983550;28;20054;-65
2024/01/09 08:45:46;;;;;;;0.20;0.20;;;;;;;-2.01;69.14;97413.34;5025315;28;20055;-64
2024/01/09 08:48:12;;;;;;;0.20;0.20;;;;;;;-1.94;68.52;97460.00;4983837;28;20054;-62
2024/01/09 08:50:39;;;;;;;0.20;0.20;;;;;;;-2.58;67.53;97380.63;5054287;28;20477;-64
2024/01/09 08:53:06;;;;;;;0.20;0.20;;;;;;;-2.00;69.16;97466.56;4992496;28;20497;-65
2024/01/09 08:55:33;;;;;;;0.20;0.20;;;;;;;-2.21;68.87;97486.75;4985109;28;20047;-64
2024/01/09 08:58:00;;;;;;;0.20;0.20;;;;;;;-2.67;68.76;97428.34;4989696;28;20046;-64
2024/01/09 09:00:27;;;;;;;0.20;0.20;;;;;;;-2.97;69.00;97423.03;5036264;28;20438;-63
2024/01/09 09:02:55;;;;;;;0.20;0.20;;;;;;;-2.83;68.79;97451.19;5083794;28;20573;-64
2024/01/09 09:05:21;;;;;;;0.20;0.20;;;;;;;-4.88;69.92;97082.53;4968304;28;20054;-62
2024/01/09 09:07:48;;;;;;;0.17;0.17;;;;;;;-2.71;69.68;97435.41;4984568;28;20429;-69
2024/01/09 09:10:16;;;;;;;0.20;0.20;;;;;;;-2.64;69.89;97454.91;4986904;28;20059;-65
2024/01/09 09:12:43;;;;;;;0.20;0.20;;;;;;;-4.22;68.73;97231.09;4989362;28;20069;-62
2024/01/09 09:15:10;;;;;;;0.10;0.10;;;;;;;-2.81;68.42;97432.72;4981214;28;20053;-63
2024/01/09 09:17:37;;;;;;;0.20;0.20;;;;;;;-2.84;67.57;97422.44;4985432;28;20058;-64
2024/01/09 09:20:05;;;;;;;0.20;0.20;;;;;;;-2.60;68.16;97439.72;5026439;28;20534;-68
2024/01/09 09:22:33;;;;;;;0.20;0.20;;;;;;;-2.13;68.17;97510.56;5041159;28;20058;-64
2024/01/09 09:25:00;;;;;;;0.20;0.20;;;;;;;-2.75;67.09;97355.72;5023039;28;20058;-63
2024/01/09 09:27:27;;;;;;;0.10;0.10;;;;;;;-2.11;67.96;97454.13;5059474;28;20048;-64
2024/01/09 09:29:54;;;;;;;0.20;0.20;;;;;;;-1.58;66.43;97502.13;4988935;28;20054;-63
2024/01/09 09:32:21;;;;;;;0.10;0.10;;;;;;;-2.29;65.41;97445.84;5030348;28;20520;-68
2024/01/09 09:34:48;;;;;;;0.20;0.20;;;;;;;-1.62;64.81;97492.94;4981049;28;20133;-62
2024/01/09 09:37:17;;;;;;;0.20;0.20;;;;;;;-1.59;64.12;97470.66;5061078;28;20604;-63
2024/01/09 09:39:44;;;;;;;0.20;0.20;;;;;;;-1.52;64.46;97477.66;5019802;28;20056;-64
2024/01/09 09:42:11;;;;;;;0.20;0.20;;;;;;;-1.14;65.87;97474.09;5022781;28;20065;-61
2024/01/09 09:44:39;;;;;;;0.20;0.20;;;;;;;-0.89;66.63;97476.56;5038470;28;20059;-61
2024/01/09 09:47:08;;;;;;;0.20;0.20;;;;;;;-1.22;64.87;97425.78;5083979;28;20502;-62
2024/01/09 09:49:37;;;;;;;0.20;0.20;;;;;;;-0.84;64.84;97468.38;5025006;28;20141;-60
2024/01/09 09:52:06;;;;;;;0.20;0.20;;;;;;;-0.91;64.21;97489.63;5051517;28;20050;-65
2024/01/09 09:54:34;;;;;;;0.20;0.20;;;;;;;-1.10;63.92;97393.59;4983861;28;20128;-62
2024/01/09 09:57:01;;;;;;;0.20;0.20;;;;;;;-0.65;62.34;97538.06;5006283;28;20141;-67
2024/01/09 09:59:28;;;;;;;0.20;0.20;;;;;;;-1.67;62.65;97367.25;5008052;28;20470;-66
2024/01/09 10:01:55;;;;;;;0.20;0.20;;;;;;;-0.67;62.00;97480.44;4983590;28;20074;-63
2024/01/09 10:04:24;;;;;;;0.20;0.20;;;;;;;-0.55;61.00;97493.63;4981877;28;20062;-63
2024/01/09 10:06:54;;;;;;;0.20;0.20;;;;;;;-1.00;60.21;97434.28;4964369;28;20141;-64
2024/01/09 10:09:22;;;;;;;0.20;0.20;;;;;;;-2.06;60.36;97315.72;4981620;28;20061;-67
2024/01/09 10:11:50;;;;;;;0.20;0.20;;;;;;;-1.06;59.85;97487.88;5024154;28;20059;-64
2024/01/09 10:14:17;;;;;;;0.20;0.20;;;;;;;-1.09;61.92;97504.75;5041840;28;20049;-64
2024/01/09 10:16:53;;;;;;;0.20;0.20;;;;;;;-0.82;60.13;97487.94;5043731;28;20135;-64
2024/01/09 10:19:24;;;;;;;0.20;0.20;;;;;;;-0.80;59.72;97458.53;5043670;28;20056;-65
2024/01/09 10:21:51;;;;;;;0.20;0.20;;;;;;;-0.76;58.54;97481.34;5043037;28;20040;-63
2024/01/09 10:24:17;;;;;;;0.20;0.20;;;;;;;-0.94;58.02;97457.59;5042931;28;20535;-64
2024/01/09 10:26:44;;;;;;;0.20;0.20;;;;;;;-1.25;57.56;97374.75;5042272;28;20115;-62
2024/01/09 10:29:12;;;;;;;0.20;0.20;;;;;;;-0.76;57.86;97481.34;5022953;28;20049;-60
2024/01/09 10:31:44;;;;;;;0.20;0.20;;;;;;;-0.96;58.97;97459.78;5023771;28;20044;-64
2024/01/09 10:34:11;;;;;;;0.20;0.20;;;;;;;-1.72;57.55;97293.97;5045526;28;20518;-65
2024/01/09 10:36:38;;;;;;;0.17;0.17;;;;;;;-0.98;57.63;97489.19;5042683;28;20287;-69
2024/01/09 10:39:06;;;;;;;0.20;0.20;;;;;;;-1.53;59.26;97361.97;5043089;28;20103;-66
2024/01/09 10:41:33;;;;;;;0.20;0.20;;;;;;;-0.93;58.90;97404.84;5043432;28;20125;-65
2024/01/09 10:44:00;;;;;;;0.20;0.20;;;;;;;-0.67;57.27;97495.94;5045180;28;20048;-71
2024/01/09 10:46:32;;;;;;;0.10;0.10;;;;;;;-0.73;57.69;97513.41;5045779;28;20707;-60
2024/01/09 10:49:00;;;;;;;0.20;0.20;;;;;;;-1.02;58.20;97479.94;5038237;28;20057;-69
2024/01/09 10:51:29;;;;;;;0.20;0.20;;;;;;;-5.37;58.62;96743.31;5074825;28;20063;-64
2024/01/09 10:53:57;;;;;;;0.20;0.20;;;;;;;-0.49;57.50;97517.75;5042848;28;20057;-68
2024/01/09 10:56:25;;;;;;;0.20;0.20;;;;;;;-0.85;59.45;97523.84;5075100;28;20057;-65
2024/01/09 10:58:51;;;;;;;0.20;0.20;;;;;;;-1.12;59.00;97429.22;5042878;28;20051;-64
2024/01/09 11:01:19;;;;;;;0.20;0.20;;;;;;;-0.13;57.37;97510.03;5037567;28;20056;-72
2024/01/09 11:03:47;;;;;;;0.17;0.17;;;;;;;-0.66;59.19;97464.91;5062750;28;20050;-62
2024/01/09 11:06:16;;;;;;;0.20;0.20;;;;;;;-2.14;57.93;97172.53;5063005;28;20053;-70
2024/01/09 11:08:50;;;;;;;0.20;0.20;;;;;;;-0.31;58.05;97472.69;5062238;28;20499;-67
2024/01/09 11:11:21;;;;;;;0.20;0.20;;;;;;;-1.29;57.32;97456.00;5045336;28;20064;-68
2024/01/09 11:13:52;;;;;;;0.20;0.20;;;;;;;-0.63;58.91;97508.66;5044245;28;20071;-63
2024/01/09 11:16:23;;;;;;;0.20;0.20;;;;;;;-0.94;59.55;97424.97;5063394;28;20048;-64
2024/01/09 11:18:52;;;;;;;0.20;0.20;;;;;;;-0.42;59.45;97454.84;5050418;28;20056;-64
2024/01/09 11:21:26;;;;;;;0.20;0.20;;;;;;;0.30;58.27;97517.06;5045023;28;20580;-64
2024/01/09 11:23:57;;;;;;;0.20;0.20;;;;;;;-0.52;57.62;97509.41;5063020;28;20052;-64
2024/01/09 11:26:29;;;;;;;0.20;0.20;;;;;;;-0.74;58.45;97501.72;5065738;28;20064;-64
2024/01/09 11:28:57;;;;;;;0.20;0.20;;;;;;;-0.24;57.30;97527.59;5066803;28;20470;-66
2024/01/09 11:31:27;;;;;;;0.20;0.20;;;;;;;-0.39;57.27;97508.69;5048510;28;20129;-64
2024/01/09 11:33:56;;;;;;;0.20;0.20;;;;;;;-1.21;58.24;97414.63;5065632;28;20491;-64
2024/01/09 11:36:33;;;;;;;0.20;0.20;;;;;;;-1.03;56.64;97535.44;5048219;28;20454;-64
2024/01/09 11:39:00;;;;;;;0.13;0.13;;;;;;;-1.21;57.45;97485.28;5066060;28;20064;-64